Time;durP1;ratioP1;P1;durP2;ratioP2;P2;SDS_P1;SDS_P2;PMS_P1;PMS_P2;Temp;Humidity;BMP_temperature;BMP_pressure;BME280_temperature;BME280_humidity;BME280_pressure;Samples;Min_cycle;Max_cycle;Signal;HPM_P1;HPM_P2
2021/12/31 00:00:46;;;;;;;69.60;9.80;;;;;;;3.61;82.31;101610.13;1770374;81;21077;-63
2021/12/31 00:03:16;;;;;;;35.60;6.97;;;;;;;3.56;82.44;101617.04;1770339;81;21606;-64
2021/12/31 00:05:45;;;;;;;59.38;9.03;;;;;;;3.55;82.43;101615.32;1770389;81;21136;-62
2021/12/31 00:08:14;;;;;;;74.40;8.80;;;;;;;3.54;82.33;101613.56;1770459;81;21120;-63
2021/12/31 00:10:43;;;;;;;26.23;4.95;;;;;;;3.43;82.47;101609.20;1770440;81;21143;-63
2021/12/31 00:13:12;;;;;;;46.88;8.05;;;;;;;3.43;82.54;101592.69;1770461;81;21073;-63
2021/12/31 00:15:41;;;;;;;36.20;8.30;;;;;;;3.48;82.34;101593.58;1770498;81;21097;-62
2021/12/31 00:18:10;;;;;;;45.78;9.75;;;;;;;3.57;82.21;101596.66;1770394;81;21073;-62
2021/12/31 00:20:40;;;;;;;54.58;7.75;;;;;;;3.63;82.04;101600.17;1770455;81;21144;-62
2021/12/31 00:23:12;;;;;;;59.75;7.90;;;;;;;3.59;82.02;101594.93;1770339;81;21089;-61
2021/12/31 00:25:41;;;;;;;62.13;8.78;;;;;;;3.54;82.12;101588.83;1770285;81;21125;-62
2021/12/31 00:28:12;;;;;;;46.10;10.08;;;;;;;3.50;82.21;101601.41;1770348;81;21080;-62
2021/12/31 00:30:42;;;;;;;70.40;9.63;;;;;;;3.48;82.27;101595.74;1770247;81;21089;-61
2021/12/31 00:33:11;;;;;;;52.62;9.05;;;;;;;3.47;82.35;101607.04;1770386;81;21495;-62
2021/12/31 00:35:40;;;;;;;72.42;9.13;;;;;;;3.44;82.42;101612.66;1770382;81;21560;-63
2021/12/31 00:38:08;;;;;;;81.65;9.83;;;;;;;3.47;82.41;101612.25;1770356;81;21585;-62
2021/12/31 00:40:37;;;;;;;70.22;8.45;;;;;;;3.55;82.22;101613.58;1770450;81;21093;-62
2021/12/31 00:43:13;;;;;;;50.20;8.60;;;;;;;3.59;82.07;101601.44;1770259;81;21583;-62
2021/12/31 00:45:43;;;;;;;55.20;8.00;;;;;;;3.56;82.01;101596.20;1767920;80;21533;-64
2021/12/31 00:48:13;;;;;;;36.90;7.42;;;;;;;3.53;81.98;101593.61;1767931;81;21060;-64
2021/12/31 00:50:43;;;;;;;30.12;5.30;;;;;;;3.54;81.97;101594.93;1767999;81;21052;-64
2021/12/31 00:53:12;;;;;;;41.70;6.12;;;;;;;3.50;82.06;101594.89;1767891;81;21088;-64
2021/12/31 00:55:41;;;;;;;16.60;4.80;;;;;;;3.47;82.08;101587.52;1769264;80;21510;-72
2021/12/31 00:58:09;;;;;;;33.92;5.22;;;;;;;3.48;81.99;101584.02;1766909;80;21531;-66
2021/12/31 01:00:38;;;;;;;33.70;5.80;;;;;;;3.50;81.92;101580.57;1759000;81;21035;-65
2021/12/31 01:03:07;;;;;;;49.03;6.28;;;;;;;3.51;81.91;101582.33;1754788;81;21053;-68
2021/12/31 01:05:35;;;;;;;46.00;5.40;;;;;;;3.46;81.99;101585.76;1767697;81;21186;-65
2021/12/31 01:08:04;;;;;;;76.45;6.60;;;;;;;3.41;82.23;101590.10;1784203;80;21135;-68
2021/12/31 01:10:33;;;;;;;20.23;4.15;;;;;;;3.44;82.28;101578.38;1791862;80;21033;-65
2021/12/31 01:13:07;;;;;;;44.00;4.40;;;;;;;3.45;82.21;101579.27;1791785;80;21168;-67
2021/12/31 01:15:42;;;;;;;29.50;12.07;;;;;;;3.48;82.15;101571.45;1794744;80;21057;-69
2021/12/31 01:20:41;;;;;;;33.78;4.97;;;;;;;3.47;82.28;101577.09;1764557;80;21081;-65
2021/12/31 01:23:11;;;;;;;55.80;6.92;;;;;;;3.46;82.32;101564.92;1766531;81;21094;-64
2021/12/31 01:25:51;;;;;;;22.55;5.62;;;;;;;3.46;82.33;101571.44;1766615;81;21523;-63
2021/12/31 01:28:22;;;;;;;26.82;5.67;;;;;;;3.46;82.41;101571.88;1767453;81;21131;-64
2021/12/31 01:31:05;;;;;;;33.13;6.62;;;;;;;3.50;82.27;101576.66;1768164;80;21076;-64
2021/12/31 01:33:36;;;;;;;21.87;6.00;;;;;;;3.49;82.12;101571.90;1763252;80;21168;-63
2021/12/31 01:36:06;;;;;;;55.05;8.28;;;;;;;3.48;82.12;101565.80;1761452;80;21668;-64
2021/12/31 01:38:37;;;;;;;44.45;5.85;;;;;;;3.47;82.17;101574.94;1797935;80;21187;-64
2021/12/31 01:41:12;;;;;;;45.98;7.28;;;;;;;3.43;82.28;101575.35;1799710;78;21198;-63
2021/12/31 01:43:39;;;;;;;29.57;5.33;;;;;;;3.42;82.43;101572.73;1772872;80;21159;-60
2021/12/31 01:46:12;;;;;;;27.50;5.62;;;;;;;3.46;82.45;101571.88;1773707;79;21074;-62
2021/12/31 01:51:27;;;;;;;58.73;7.08;;;;;;;3.48;82.29;101577.95;1751066;82;21654;-61
2021/12/31 01:53:56;;;;;;;48.95;6.92;;;;;;;3.51;82.26;101581.89;1750951;82;21634;-60
2021/12/31 01:56:28;;;;;;;24.50;5.30;;;;;;;3.54;82.34;101575.80;1753952;80;21110;-61
2021/12/31 01:58:57;;;;;;;25.95;4.92;;;;;;;3.47;82.47;101570.59;1751047;82;21104;-60
2021/12/31 02:01:26;;;;;;;30.17;5.72;;;;;;;3.45;82.54;101569.72;1751036;82;21505;-61
2021/12/31 02:03:55;;;;;;;34.38;5.47;;;;;;;3.46;82.50;101567.53;1751067;82;21650;-62
2021/12/31 02:06:24;;;;;;;45.00;6.00;;;;;;;3.46;82.59;101564.92;1751385;82;21702;-61
2021/12/31 02:08:53;;;;;;;36.68;6.58;;;;;;;3.43;82.75;101574.46;1751028;82;21070;-62
2021/12/31 02:11:21;;;;;;;43.45;6.25;;;;;;;3.43;82.79;101583.16;1751132;82;21561;-61
2021/12/31 02:13:50;;;;;;;23.25;5.00;;;;;;;3.44;82.86;101583.58;1751055;82;21074;-62
2021/12/31 02:16:19;;;;;;;55.73;6.15;;;;;;;3.46;82.81;101584.45;1751057;82;21571;-61
2021/12/31 02:18:48;;;;;;;34.58;5.60;;;;;;;3.50;82.70;101581.88;1751288;82;21185;-62
2021/12/31 02:21:16;;;;;;;45.80;6.17;;;;;;;3.47;82.69;101584.05;1755184;80;21133;-62
2021/12/31 02:23:47;;;;;;;50.55;9.63;;;;;;;3.51;82.49;101582.33;1755857;82;21680;-61
2021/12/31 02:26:16;;;;;;;44.38;8.68;;;;;;;3.54;82.29;101587.52;1755837;82;21182;-63
2021/12/31 02:28:44;;;;;;;63.40;8.58;;;;;;;3.58;82.20;101594.47;1755808;82;21070;-63
2021/12/31 02:31:13;;;;;;;48.65;8.95;;;;;;;3.60;82.24;101597.98;1773794;80;21172;-63
2021/12/31 02:33:43;;;;;;;44.73;11.65;;;;;;;3.62;82.46;101598.41;1796460;80;21472;-63
2021/12/31 02:36:12;;;;;;;36.65;9.18;;;;;;;3.67;82.44;101604.52;1796693;80;21038;-63
2021/12/31 02:38:41;;;;;;;65.87;9.10;;;;;;;3.72;82.23;101604.95;1796578;80;21124;-63
2021/12/31 02:41:09;;;;;;;49.30;12.70;;;;;;;3.74;82.03;101607.13;1796766;80;21069;-63
2021/12/31 02:43:39;;;;;;;27.00;10.70;;;;;;;3.73;81.97;101598.89;1796556;80;21045;-60
2021/12/31 02:46:08;;;;;;;32.78;11.70;;;;;;;3.75;82.05;101598.02;1757053;80;21498;-61
2021/12/31 02:48:36;;;;;;;29.52;9.95;;;;;;;3.77;81.92;101597.59;1759537;81;21187;-60
2021/12/31 02:51:06;;;;;;;66.82;12.18;;;;;;;3.78;81.79;101588.03;1759587;81;21154;-61
2021/12/31 02:53:41;;;;;;;23.25;7.87;;;;;;;3.73;81.71;101577.61;1759689;81;21131;-61
2021/12/31 02:56:12;;;;;;;29.40;8.90;;;;;;;3.63;81.84;101575.42;1761670;80;21207;-61
2021/12/31 02:58:42;;;;;;;31.97;10.63;;;;;;;3.50;82.15;101574.06;1759595;81;21068;-61
2021/12/31 03:01:12;;;;;;;21.23;7.00;;;;;;;3.40;82.45;101581.84;1759609;81;21139;-62
2021/12/31 03:03:42;;;;;;;33.60;7.30;;;;;;;3.35;82.69;101580.94;1759633;81;21131;-62
2021/12/31 03:06:12;;;;;;;47.60;6.33;;;;;;;3.35;82.74;101580.94;1759622;81;21431;-62
2021/12/31 03:08:43;;;;;;;49.05;10.38;;;;;;;3.32;82.83;101587.87;1759556;81;21069;-62
2021/12/31 03:11:14;;;;;;;21.73;7.80;;;;;;;3.32;82.82;101587.45;1796698;80;21077;-62
2021/12/31 03:13:43;;;;;;;25.85;7.60;;;;;;;3.37;82.70;101588.33;1799752;80;21059;-63
2021/12/31 03:16:12;;;;;;;22.40;8.40;;;;;;;3.37;82.80;101587.02;1790990;80;21652;-60
2021/12/31 03:18:42;;;;;;;24.92;6.40;;;;;;;3.35;82.97;101586.15;1759584;81;21104;-60
2021/12/31 03:21:20;;;;;;;50.08;8.33;;;;;;;3.41;82.92;101581.40;1759555;81;21585;-63
2021/12/31 03:23:41;;;;;;;25.20;7.08;;;;;;;3.37;82.94;101583.12;1757770;81;21088;-62
2021/12/31 03:26:10;;;;;;;48.00;6.45;;;;;;;3.44;82.89;101583.58;1761485;80;21131;-61
2021/12/31 03:28:39;;;;;;;22.55;5.47;;;;;;;3.47;82.87;101580.14;1799711;80;21089;-62
2021/12/31 03:31:07;;;;;;;27.40;6.05;;;;;;;3.32;83.02;101584.86;1799723;80;21574;-61
2021/12/31 03:33:36;;;;;;;23.98;5.80;;;;;;;3.29;83.08;101594.80;1799670;80;21081;-62
2021/12/31 03:36:05;;;;;;;23.83;5.53;;;;;;;3.33;82.99;101593.52;1799532;80;21079;-62
2021/12/31 03:38:34;;;;;;;42.75;6.85;;;;;;;3.26;83.02;101584.80;1799639;80;21496;-63
2021/12/31 03:41:02;;;;;;;30.60;6.80;;;;;;;3.23;83.05;101585.67;1795837;80;21063;-63
2021/12/31 03:43:31;;;;;;;22.62;5.60;;;;;;;3.17;83.19;101589.97;1759546;81;21096;-62
2021/12/31 03:46:00;;;;;;;44.73;7.05;;;;;;;3.14;83.27;101579.56;1757970;81;21126;-62
2021/12/31 03:48:29;;;;;;;19.02;6.10;;;;;;;3.13;83.38;101589.52;1752329;80;21070;-62
2021/12/31 03:50:58;;;;;;;20.97;5.62;;;;;;;3.19;83.34;101588.23;1753365;82;21149;-62
2021/12/31 03:53:26;;;;;;;41.73;7.35;;;;;;;3.26;83.20;101592.20;1753440;82;21179;-62
2021/12/31 03:55:56;;;;;;;75.42;6.45;;;;;;;3.27;83.02;101594.37;1753336;81;21239;-62
2021/12/31 03:58:25;;;;;;;36.65;6.92;;;;;;;3.28;82.87;101587.88;1753513;80;21026;-62
2021/12/31 04:00:54;;;;;;;28.15;6.72;;;;;;;3.27;82.89;101592.63;1751009;82;21188;-62
2021/12/31 04:03:23;;;;;;;25.97;6.37;;;;;;;3.27;82.81;101589.16;1750920;82;21177;-62
2021/12/31 04:05:51;;;;;;;31.50;6.87;;;;;;;3.28;82.81;101581.77;1751127;82;21077;-62
2021/12/31 04:08:20;;;;;;;21.62;5.17;;;;;;;3.27;82.83;101585.27;1750996;82;21070;-63
2021/12/31 04:10:50;;;;;;;20.52;6.10;;;;;;;3.27;82.70;101587.42;1751132;82;21512;-62
2021/12/31 04:13:18;;;;;;;18.70;5.92;;;;;;;3.26;82.64;101575.70;1754651;80;21571;-62
2021/12/31 04:15:47;;;;;;;26.85;5.72;;;;;;;3.20;82.82;101575.67;1796428;80;21120;-64
2021/12/31 04:18:16;;;;;;;20.52;7.15;;;;;;;3.13;83.04;101577.81;1787189;80;21093;-61
2021/12/31 04:20:45;;;;;;;63.63;9.03;;;;;;;3.14;83.12;101579.56;1751002;82;21492;-62
2021/12/31 04:23:24;;;;;;;31.77;9.25;;;;;;;3.19;82.95;101589.13;1751006;82;21074;-62
2021/12/31 04:25:45;;;;;;;25.62;7.37;;;;;;;3.20;82.99;101593.89;1752547;80;21073;-63
2021/12/31 04:28:13;;;;;;;29.82;8.20;;;;;;;3.23;82.94;101600.43;1750869;81;21078;-61
2021/12/31 04:30:42;;;;;;;48.40;7.75;;;;;;;3.25;82.89;101598.27;1751108;81;21085;-61
2021/12/31 04:33:11;;;;;;;22.42;7.08;;;;;;;3.29;82.92;101592.20;1751014;82;21568;-61
2021/12/31 04:35:40;;;;;;;53.58;7.83;;;;;;;3.30;82.90;101589.16;1780485;80;21078;-61
2021/12/31 04:38:08;;;;;;;23.70;6.50;;;;;;;3.32;82.83;101589.17;1796531;80;21089;-62
2021/12/31 04:40:37;;;;;;;26.50;6.20;;;;;;;3.31;82.82;101592.21;1796622;80;21097;-64
2021/12/31 04:43:06;;;;;;;20.90;5.35;;;;;;;3.32;82.72;101587.87;1796464;80;21129;-62
2021/12/31 04:45:35;;;;;;;22.93;7.45;;;;;;;3.28;82.66;101583.08;1778655;80;21078;-63
2021/12/31 04:48:04;;;;;;;38.67;5.75;;;;;;;3.21;82.63;101581.30;1757078;80;21616;-62
2021/12/31 04:50:32;;;;;;;21.73;5.10;;;;;;;3.19;82.62;101585.23;1759654;81;21072;-63
2021/12/31 04:53:07;;;;;;;16.25;5.20;;;;;;;3.18;82.67;101581.31;1759555;81;21163;-62
2021/12/31 04:55:32;;;;;;;16.90;5.92;;;;;;;3.13;82.71;101588.22;1761432;80;21277;-62
2021/12/31 04:58:01;;;;;;;24.72;5.08;;;;;;;3.14;82.70;101595.18;1759620;81;21570;-62
2021/12/31 05:00:30;;;;;;;19.82;5.15;;;;;;;3.15;82.75;101600.80;1759620;81;21154;-62
2021/12/31 05:03:00;;;;;;;17.32;4.70;;;;;;;3.19;82.78;101598.65;1759588;81;21143;-62
2021/12/31 05:05:29;;;;;;;18.85;5.37;;;;;;;3.19;82.78;101597.34;1759396;81;21120;-61
2021/12/31 05:07:58;;;;;;;12.68;5.45;;;;;;;3.19;82.73;101592.14;1762176;80;21111;-63
2021/12/31 05:10:30;;;;;;;9.98;4.83;;;;;;;3.14;82.81;101584.77;1759645;80;21088;-62
2021/12/31 05:12:57;;;;;;;14.87;4.60;;;;;;;3.12;82.75;101577.36;1759180;81;21077;-62
2021/12/31 05:15:27;;;;;;;14.47;5.03;;;;;;;3.11;82.61;101586.05;1759505;81;21092;-62
2021/12/31 05:17:56;;;;;;;11.75;3.62;;;;;;;3.07;82.67;101584.71;1762181;80;21040;-62
2021/12/31 05:20:25;;;;;;;12.23;5.35;;;;;;;3.07;82.70;101592.52;1759419;81;21099;-62
2021/12/31 05:22:57;;;;;;;11.25;4.05;;;;;;;3.15;82.63;101600.36;1759503;80;21155;-62
2021/12/31 05:25:25;;;;;;;13.05;5.25;;;;;;;3.20;82.64;101605.61;1759575;81;21080;-61
2021/12/31 05:27:54;;;;;;;16.25;6.92;;;;;;;3.25;82.59;101616.48;1762273;80;21130;-62
2021/12/31 05:30:25;;;;;;;25.27;5.87;;;;;;;3.24;82.55;101609.96;1759562;81;21040;-61
2021/12/31 05:32:54;;;;;;;16.95;5.22;;;;;;;3.25;82.55;101607.81;1759412;81;21072;-62
2021/12/31 05:35:24;;;;;;;17.62;5.70;;;;;;;3.24;82.47;101611.27;1759506;80;21728;-62
2021/12/31 05:37:53;;;;;;;17.05;5.30;;;;;;;3.27;82.42;101609.98;1780529;78;21100;-63
2021/12/31 05:40:21;;;;;;;44.23;6.85;;;;;;;3.29;82.43;101612.16;1799526;78;21061;-62
2021/12/31 05:42:50;;;;;;;15.13;5.28;;;;;;;3.29;82.37;101617.37;1799518;80;21586;-62
2021/12/31 05:45:19;;;;;;;24.82;6.40;;;;;;;3.32;82.33;101621.30;1799497;78;21140;-62
2021/12/31 05:47:49;;;;;;;44.00;7.95;;;;;;;3.25;82.40;101619.09;1780190;80;21152;-63
2021/12/31 05:50:30;;;;;;;18.05;5.53;;;;;;;3.25;82.45;101619.52;1743227;82;21108;-62
2021/12/31 05:53:00;;;;;;;16.85;5.78;;;;;;;3.22;82.58;101619.50;1743355;82;21194;-61
2021/12/31 05:55:29;;;;;;;15.03;5.10;;;;;;;3.25;82.55;101624.73;1743374;82;21112;-63
2021/12/31 05:57:58;;;;;;;14.80;4.72;;;;;;;3.34;82.42;101621.28;1743164;82;21037;-62
2021/12/31 06:00:27;;;;;;;19.75;5.05;;;;;;;3.35;82.16;101626.94;1743313;82;21491;-62
2021/12/31 06:02:58;;;;;;;17.15;5.53;;;;;;;3.33;82.01;101628.23;1745784;82;21499;-63
2021/12/31 06:05:27;;;;;;;18.42;5.62;;;;;;;3.33;82.02;101628.23;1746425;82;21147;-62
2021/12/31 06:07:57;;;;;;;15.38;6.22;;;;;;;3.41;81.96;101626.95;1746526;81;21073;-62
2021/12/31 06:10:27;;;;;;;15.60;5.22;;;;;;;3.46;81.80;101627.42;1746394;82;21632;-62
2021/12/31 06:12:59;;;;;;;22.52;6.70;;;;;;;3.53;81.62;101624.86;1746321;82;21072;-63
2021/12/31 06:15:29;;;;;;;16.23;5.35;;;;;;;3.57;81.49;101622.70;1746561;82;21135;-62
2021/12/31 06:17:58;;;;;;;12.98;5.95;;;;;;;3.64;81.41;101620.56;1746665;82;21135;-62
2021/12/31 06:20:32;;;;;;;14.43;6.28;;;;;;;3.68;81.29;101617.09;1746537;82;21068;-61
2021/12/31 06:22:58;;;;;;;13.25;6.10;;;;;;;3.75;81.22;101622.77;1746390;82;21049;-63
2021/12/31 06:25:27;;;;;;;17.65;6.15;;;;;;;3.77;81.27;101622.34;1746530;82;21582;-62
2021/12/31 06:27:56;;;;;;;21.75;7.90;;;;;;;3.82;81.18;101625.83;1746237;82;21479;-62
2021/12/31 06:30:25;;;;;;;25.95;6.87;;;;;;;3.82;81.11;101622.37;1746506;81;21069;-63
2021/12/31 06:32:53;;;;;;;28.27;6.60;;;;;;;3.77;81.16;101619.73;1746546;82;21080;-62
2021/12/31 06:35:22;;;;;;;20.37;7.22;;;;;;;3.69;81.32;101618.85;1744736;82;21076;-64
2021/12/31 06:37:53;;;;;;;16.77;6.85;;;;;;;3.64;81.50;101625.77;1743380;82;21653;-62
2021/12/31 06:40:23;;;;;;;17.70;7.62;;;;;;;3.62;81.70;101625.77;1743465;82;21076;-61
2021/12/31 06:42:52;;;;;;;16.75;6.28;;;;;;;3.61;81.79;101630.95;1743366;82;21092;-64
2021/12/31 06:45:21;;;;;;;21.57;6.85;;;;;;;3.63;81.78;101633.13;1743465;82;21084;-62
2021/12/31 06:47:49;;;;;;;26.85;7.42;;;;;;;3.67;81.78;101633.58;1743463;81;21154;-64
2021/12/31 06:50:20;;;;;;;15.75;6.58;;;;;;;3.69;81.65;101620.16;1755756;82;21619;-62
2021/12/31 06:52:48;;;;;;;19.10;7.03;;;;;;;3.70;81.50;101617.97;1755408;82;21050;-65
2021/12/31 06:55:17;;;;;;;23.02;6.83;;;;;;;3.68;81.52;101619.70;1756045;82;21090;-62
2021/12/31 06:57:47;;;;;;;17.55;6.95;;;;;;;3.70;81.49;101615.80;1756065;82;21085;-64
2021/12/31 07:00:16;;;;;;;18.10;6.55;;;;;;;3.73;81.36;101616.69;1793687;80;21025;-62
2021/12/31 07:02:44;;;;;;;14.93;6.12;;;;;;;3.73;81.38;101616.69;1796523;80;21033;-63
2021/12/31 07:05:13;;;;;;;19.45;6.60;;;;;;;3.73;81.40;101616.69;1796561;80;21061;-62
2021/12/31 07:07:42;;;;;;;19.95;7.92;;;;;;;3.76;81.26;101608.89;1796549;80;21069;-62
2021/12/31 07:10:10;;;;;;;26.27;10.18;;;;;;;3.74;81.42;101609.30;1763640;80;21069;-62
2021/12/31 07:12:39;;;;;;;21.48;8.63;;;;;;;3.81;81.49;101616.70;1754699;80;21168;-64
2021/12/31 07:15:09;;;;;;;20.72;8.13;;;;;;;3.84;81.40;101612.81;1790850;80;21148;-65
2021/12/31 07:17:37;;;;;;;26.35;11.05;;;;;;;3.86;81.19;101609.78;1791351;80;21120;-64
2021/12/31 07:20:07;;;;;;;22.22;8.85;;;;;;;3.86;80.90;101600.22;1791302;80;21148;-64
2021/12/31 07:22:37;;;;;;;21.80;10.15;;;;;;;3.88;80.91;101601.97;1782017;80;21069;-65
2021/12/31 07:25:07;;;;;;;24.35;9.08;;;;;;;3.90;80.80;101605.00;1750967;82;21149;-65
2021/12/31 07:27:35;;;;;;;29.82;10.68;;;;;;;3.93;80.71;101605.43;1750967;82;21144;-65
2021/12/31 07:30:05;;;;;;;22.50;8.58;;;;;;;3.99;80.86;101601.56;1751006;82;21034;-66
2021/12/31 07:32:38;;;;;;;25.55;9.18;;;;;;;4.13;80.82;101612.88;1751095;82;21074;-66
2021/12/31 07:35:07;;;;;;;30.68;9.40;;;;;;;4.18;80.81;101618.09;1751022;82;21054;-64
2021/12/31 07:37:37;;;;;;;28.62;8.85;;;;;;;4.18;80.68;101612.87;1752801;81;21140;-67
2021/12/31 07:40:10;;;;;;;14.30;6.45;;;;;;;4.21;80.59;101607.23;1755738;82;21177;-65
2021/12/31 07:42:38;;;;;;;14.13;5.25;;;;;;;4.34;80.44;101615.94;1755893;82;21524;-66
2021/12/31 07:45:08;;;;;;;19.75;10.10;;;;;;;4.34;80.18;101615.94;1755827;82;21615;-64
2021/12/31 07:47:37;;;;;;;14.07;6.47;;;;;;;4.36;80.10;101608.12;1755074;80;21086;-64
2021/12/31 07:50:06;;;;;;;10.63;5.17;;;;;;;4.43;79.82;101609.86;1751156;81;21142;-66
2021/12/31 07:52:35;;;;;;;44.23;39.85;;;;;;;4.50;79.75;101611.61;1751054;81;21081;-65
2021/12/31 07:55:04;;;;;;;97.20;87.35;;;;;;;4.63;79.57;101610.73;1750995;82;21081;-64
2021/12/31 07:57:32;;;;;;;59.85;53.55;;;;;;;4.86;79.44;101608.52;1751124;82;21066;-67
2021/12/31 08:00:01;;;;;;;82.72;74.07;;;;;;;5.05;79.10;101609.80;1752397;80;21176;-64
2021/12/31 08:02:31;;;;;;;65.12;58.42;;;;;;;5.28;79.05;101614.52;1762878;80;21038;-64
2021/12/31 08:05:00;;;;;;;197.62;168.70;;;;;;;5.50;78.79;101604.88;1791319;80;21065;-63
2021/12/31 08:07:29;;;;;;;8.18;3.87;;;;;;;5.66;78.76;101599.56;1764392;80;21138;-64
2021/12/31 08:09:58;;;;;;;7.55;4.17;;;;;;;5.76;78.48;101590.36;1748586;82;21566;-64
2021/12/31 08:12:28;;;;;;;10.13;4.67;;;;;;;5.89;78.18;101583.77;1748640;82;21116;-62
2021/12/31 08:14:56;;;;;;;7.72;4.25;;;;;;;6.14;77.66;101578.84;1758330;80;21161;-62
2021/12/31 08:17:25;;;;;;;7.37;4.08;;;;;;;6.29;77.19;101588.73;1759654;81;21140;-62
2021/12/31 08:19:54;;;;;;;7.47;3.98;;;;;;;6.37;76.83;101585.64;1751426;81;21554;-63
2021/12/31 08:22:26;;;;;;;6.25;4.30;;;;;;;6.38;76.80;101586.05;1793320;80;21065;-62
2021/12/31 08:24:54;;;;;;;7.70;3.98;;;;;;;6.38;77.07;101576.89;1796525;80;21093;-62
2021/12/31 08:27:23;;;;;;;7.47;4.00;;;;;;;6.52;77.04;101586.80;1796512;80;21163;-62
2021/12/31 08:29:52;;;;;;;8.33;4.30;;;;;;;6.72;76.75;101583.16;1767977;80;21576;-69
2021/12/31 08:32:20;;;;;;;10.50;5.12;;;;;;;6.69;76.46;101589.72;1748477;82;21784;-66
2021/12/31 08:34:49;;;;;;;8.18;4.00;;;;;;;6.63;76.02;101577.55;1749092;82;21076;-68
2021/12/31 08:37:17;;;;;;;7.47;4.03;;;;;;;6.70;76.10;101578.38;1754474;81;21478;-68
2021/12/31 08:39:46;;;;;;;9.78;5.45;;;;;;;6.86;75.90;101573.84;1748797;82;21166;-68
2021/12/31 08:42:34;;;;;;;13.03;6.60;;;;;;;7.15;75.40;101569.14;1751655;82;21155;-68
2021/12/31 08:45:04;;;;;;;11.85;5.97;;;;;;;7.69;74.18;101559.31;1761233;80;21137;-67
2021/12/31 08:47:33;;;;;;;14.53;6.87;;;;;;;8.04;73.25;101550.48;1763009;81;21112;-68
2021/12/31 08:50:01;;;;;;;11.48;6.58;;;;;;;7.94;73.41;101558.95;1763011;81;21111;-67
2021/12/31 08:52:30;;;;;;;12.55;6.83;;;;;;;7.80;73.75;101551.73;1762931;81;21560;-68
2021/12/31 08:54:59;;;;;;;15.45;8.15;;;;;;;7.63;74.02;101548.89;1759518;81;21085;-68
2021/12/31 08:57:28;;;;;;;13.03;7.03;;;;;;;7.48;74.48;101547.35;1758786;81;21124;-67
2021/12/31 08:59:56;;;;;;;12.23;6.70;;;;;;;7.47;74.45;101552.61;1758910;81;21070;-67
2021/12/31 09:02:25;;;;;;;13.62;6.25;;;;;;;7.39;74.70;101543.99;1758854;81;21152;-68
2021/12/31 09:04:54;;;;;;;12.60;6.12;;;;;;;7.33;74.60;101535.77;1758953;81;21116;-67
2021/12/31 09:07:22;;;;;;;14.93;7.05;;;;;;;7.21;74.77;101531.57;1759580;80;21268;-65
2021/12/31 09:09:51;;;;;;;12.90;6.40;;;;;;;7.08;74.90;101526.03;1764790;80;21569;-67
2021/12/31 09:12:19;;;;;;;14.87;7.95;;;;;;;7.01;75.01;101527.88;1762867;81;21116;-68
2021/12/31 09:14:48;;;;;;;18.55;9.05;;;;;;;6.97;74.93;101519.60;1763010;80;21691;-65
2021/12/31 09:17:17;;;;;;;20.92;10.08;;;;;;;7.01;74.86;101525.67;1762911;81;21119;-66
2021/12/31 09:19:45;;;;;;;18.98;10.28;;;;;;;7.01;74.72;101512.58;1762922;81;21198;-66
2021/12/31 09:22:14;;;;;;;19.85;7.85;;;;;;;7.03;74.60;101518.70;1762838;81;21055;-66
2021/12/31 09:24:43;;;;;;;16.23;8.48;;;;;;;7.01;74.52;101513.89;1763052;81;21160;-64
2021/12/31 09:27:15;;;;;;;22.48;11.57;;;;;;;7.09;74.40;101519.92;1762865;81;21055;-66
2021/12/31 09:29:45;;;;;;;26.77;11.48;;;;;;;7.41;73.97;101517.33;1762814;81;21079;-64
2021/12/31 09:32:14;;;;;;;29.40;11.48;;;;;;;7.69;73.41;101517.80;1762852;81;21124;-64
2021/12/31 09:34:44;;;;;;;19.20;9.70;;;;;;;7.90;72.84;101520.56;1762875;81;21202;-64
2021/12/31 09:37:13;;;;;;;21.70;7.95;;;;;;;7.97;72.64;101520.00;1762906;81;22275;-64
2021/12/31 09:39:42;;;;;;;20.50;9.70;;;;;;;7.88;72.84;101514.48;1762974;81;21116;-64
2021/12/31 09:42:10;;;;;;;19.30;9.68;;;;;;;7.78;73.14;101515.03;1762915;81;21194;-64
2021/12/31 09:44:40;;;;;;;23.07;9.95;;;;;;;7.69;73.33;101517.38;1773092;81;21087;-63
2021/12/31 09:47:13;;;;;;;20.37;9.78;;;;;;;7.59;73.47;101505.27;1779942;81;21196;-64
2021/12/31 09:49:42;;;;;;;25.52;10.48;;;;;;;7.57;73.58;101499.20;1780002;81;21074;-64
2021/12/31 09:52:13;;;;;;;23.77;10.70;;;;;;;7.55;73.78;101495.73;1779856;81;21477;-64
2021/12/31 09:54:48;;;;;;;22.50;11.40;;;;;;;7.62;73.90;101493.45;1779976;81;21065;-64
2021/12/31 09:57:22;;;;;;;32.08;21.85;;;;;;;7.73;73.70;101494.61;1779966;81;21079;-63
2021/12/31 09:59:49;;;;;;;;;;;;;;;7.90;73.46;101492.57;1782475;81;21058;-65
2021/12/31 10:02:21;;;;;;;66.53;49.08;;;;;;;8.04;73.19;101490.16;1779878;81;20169;-64
2021/12/31 10:04:57;;;;;;;58.75;42.58;;;;;;;8.07;72.81;101485.73;1777616;81;21555;-64
2021/12/31 10:07:29;;;;;;;93.92;69.05;;;;;;;8.17;72.56;101484.27;1779976;81;21054;-64
2021/12/31 10:10:15;;;;;;;32.08;13.18;;;;;;;8.23;72.47;101480.25;1779894;81;21082;-63
2021/12/31 10:12:52;;;;;;;33.15;13.88;;;;;;;8.23;72.50;101481.56;1779835;81;21074;-64
2021/12/31 10:15:28;;;;;;;31.93;13.45;;;;;;;8.13;72.58;101478.20;1779980;81;21071;-64
2021/12/31 10:17:55;;;;;;;41.65;23.35;;;;;;;7.96;72.72;101479.80;1779404;81;21576;-64
2021/12/31 10:20:24;;;;;;;21.50;10.82;;;;;;;7.82;73.14;101481.35;1779842;81;21059;-64
2021/12/31 10:22:56;;;;;;;29.20;13.13;;;;;;;7.78;73.30;101482.72;1779872;81;21054;-64
2021/12/31 10:25:30;;;;;;;38.75;15.20;;;;;;;7.73;73.46;101477.11;1774174;80;21102;-64
2021/12/31 10:28:09;;;;;;;33.97;13.80;;;;;;;7.69;73.51;101477.16;1780048;81;21107;-64
2021/12/31 10:30:39;;;;;;;37.38;15.25;;;;;;;7.64;73.59;101479.88;1779832;81;21054;-63
2021/12/31 10:33:08;;;;;;;33.50;15.23;;;;;;;7.53;73.93;101470.00;1779901;81;21493;-65
2021/12/31 10:35:45;;;;;;;41.05;17.82;;;;;;;7.51;74.20;101467.39;1779838;81;21121;-63
2021/12/31 10:38:14;;;;;;;39.20;17.27;;;;;;;7.49;74.22;101469.62;1779886;81;21078;-63
2021/12/31 10:41:06;;;;;;;47.67;17.60;;;;;;;7.43;74.32;101467.08;1779829;81;21078;-64
2021/12/31 10:43:35;;;;;;;42.15;17.40;;;;;;;7.38;74.37;101462.34;1835200;78;21049;-66
2021/12/31 10:46:10;;;;;;;46.85;19.23;;;;;;;7.27;74.66;101459.44;1835188;78;21075;-64
2021/12/31 10:48:51;;;;;;;47.08;18.95;;;;;;;7.26;74.89;101459.00;1835255;78;21053;-64
2021/12/31 10:51:38;;;;;;;52.70;18.92;;;;;;;7.29;74.85;101451.11;1835251;78;21119;-64
2021/12/31 10:54:44;;;;;;;44.23;19.55;;;;;;;7.31;74.81;101451.95;1834836;77;21141;-64
2021/12/31 10:57:03;;;;;;;45.28;18.15;;;;;;;7.25;74.89;101445.50;1833525;78;21046;-64
2021/12/31 10:59:37;;;;;;;41.00;17.70;;;;;;;7.27;74.94;101451.58;1835170;77;21132;-64
2021/12/31 11:02:03;;;;;;;37.55;16.50;;;;;;;7.27;75.08;101453.34;1834793;78;21077;-64
2021/12/31 11:04:33;;;;;;;43.50;18.15;;;;;;;7.31;75.04;101447.16;1835192;78;21127;-65
2021/12/31 11:07:02;;;;;;;37.48;16.90;;;;;;;7.21;74.93;101447.75;1835170;77;21491;-64
2021/12/31 11:09:33;;;;;;;47.20;17.98;;;;;;;7.14;75.19;101455.27;1835124;78;21523;-64
2021/12/31 11:12:02;;;;;;;42.53;17.42;;;;;;;7.03;75.24;101455.40;1835101;78;21101;-64
2021/12/31 11:14:33;;;;;;;37.45;16.42;;;;;;;7.03;75.30;101446.69;1835356;78;21554;-65
2021/12/31 11:17:01;;;;;;;40.78;19.75;;;;;;;7.05;75.14;101443.15;1835068;78;21053;-65
2021/12/31 11:19:30;;;;;;;41.68;18.32;;;;;;;7.01;74.94;101441.47;1835158;78;21074;-63
2021/12/31 11:22:00;;;;;;;36.85;15.63;;;;;;;6.99;74.92;101438.42;1835138;78;21089;-63
2021/12/31 11:24:36;;;;;;;35.58;14.18;;;;;;;6.95;74.89;101435.86;1835268;78;21089;-64
2021/12/31 11:27:19;;;;;;;33.88;13.75;;;;;;;6.89;74.99;101428.52;1835156;78;21086;-63
2021/12/31 11:29:48;;;;;;;29.10;13.70;;;;;;;6.85;75.03;101439.47;1799336;78;21174;-64
2021/12/31 11:32:17;;;;;;;30.65;13.43;;;;;;;6.83;75.12;101439.94;1835107;78;21128;-64
2021/12/31 11:34:47;;;;;;;29.37;12.90;;;;;;;6.85;75.23;101453.02;1835159;78;21038;-64
2021/12/31 11:37:44;;;;;;;26.27;11.28;;;;;;;6.86;75.21;101452.11;1832437;78;21156;-63
2021/12/31 11:40:31;;;;;;;29.42;11.75;;;;;;;6.83;75.24;101454.78;1835124;78;21208;-64
2021/12/31 11:43:23;;;;;;;29.20;13.00;;;;;;;6.80;75.27;101458.73;1839531;78;21641;-64